Time,TemperatureF,DewpointF,PressureIn,WindDirection,WindDirectionDegrees,WindSpeedMPH,WindSpeedGustMPH,Humidity,HourlyPrecipIn,Conditions,Clouds,dailyrainin,SoftwareType,DateUTC
2013-02-14 00:10:00,32.5,27.1,29.69,SSW,202,0.0,0.0,80,0.00,,,0.00,WUHU21023XXSP,2013-02-14 06:10:00,
2013-02-14 00:16:00,32.2,26.8,29.70,SSW,202,0.0,0.0,80,0.00,,,0.00,WUHU21023XXSP,2013-02-14 06:16:00,
2013-02-14 00:22:00,32.2,26.8,29.69,SSW,202,0.0,0.0,80,0.00,,,0.00,WUHU21023XXSP,2013-02-14 06:22:00,
2013-02-14 00:29:00,31.8,26.4,29.70,SSW,202,0.0,0.0,80,0.00,,,0.00,WUHU21023XXSP,2013-02-14 06:29:00,
2013-02-14 00:35:00,31.8,26.7,29.69,SSW,202,0.0,0.0,81,0.00,,,0.00,WUHU21023XXSP,2013-02-14 06:35:00,
2013-02-14 00:42:00,31.8,26.7,29.69,SSW,202,0.0,0.0,81,0.00,,,0.00,WUHU21023XXSP,2013-02-14 06:42:00,
2013-02-14 00:48:00,31.8,26.7,29.69,SSE,157,0.0,0.0,81,0.00,,,0.00,WUHU21023XXSP,2013-02-14 06:48:00,
2013-02-14 00:55:00,31.8,26.7,29.69,SSE,157,0.0,0.0,81,0.00,,,0.00,WUHU21023XXSP,2013-02-14 06:55:00,
2013-02-14 01:04:00,31.8,27.0,29.69,SSE,157,0.0,0.0,82,0.00,,,0.00,WUHU21023XXSP,2013-02-14 07:04:00,
2013-02-14 01:09:00,32.4,27.8,29.68,SSE,157,0.0,0.0,83,0.00,,,0.00,WUHU21023XXSP,2013-02-14 07:09:00,
2013-02-14 01:16:00,32.7,28.1,29.68,SE,135,0.0,0.0,83,0.00,,,0.00,WUHU21023XXSP,2013-02-14 07:16:00,
2013-02-14 01:22:00,32.9,28.3,29.68,SSE,157,0.0,0.0,83,0.00,,,0.00,WUHU21023XXSP,2013-02-14 07:22:00,
2013-02-14 01:29:00,33.1,28.4,29.68,SSE,157,0.0,0.0,83,0.00,,,0.00,WUHU21023XXSP,2013-02-14 07:29:00,
2013-02-14 01:35:00,33.1,28.4,29.68,SSE,157,0.0,0.0,83,0.00,,,0.00,WUHU21023XXSP,2013-02-14 07:35:00,
2013-02-14 01:42:00,33.3,28.6,29.67,SSE,157,0.0,0.0,83,0.00,,,0.00,WUHU21023XXSP,2013-02-14 07:42:00,
2013-02-14 01:48:00,33.3,28.6,29.67,SSE,157,0.0,0.0,83,0.00,,,0.00,WUHU21023XXSP,2013-02-14 07:48:00,
2013-02-14 01:54:00,33.4,28.8,29.67,SSE,157,0.0,0.0,83,0.00,,,0.00,WUHU21023XXSP,2013-02-14 07:54:00,
2013-02-14 02:01:00,33.4,28.8,29.66,SSE,157,0.0,0.0,83,0.00,,,0.00,WUHU21023XXSP,2013-02-14 08:01:00,
2013-02-14 02:07:00,33.4,28.8,29.66,SSE,157,0.0,0.0,83,0.00,,,0.00,WUHU21023XXSP,2013-02-14 08:07:00,
2013-02-14 02:14:00,33.4,28.8,29.66,SE,135,0.0,0.0,83,0.00,,,0.00,WUHU21023XXSP,2013-02-14 08:14:00,
2013-02-14 02:20:00,33.6,28.9,29.66,SE,135,0.0,0.0,83,0.00,,,0.00,WUHU21023XXSP,2013-02-14 08:20:00,
2013-02-14 02:27:00,33.6,28.9,29.65,SE,135,0.0,0.0,83,0.00,,,0.00,WUHU21023XXSP,2013-02-14 08:27:00,
2013-02-14 02:33:00,33.6,28.9,29.65,SE,135,0.0,0.0,83,0.00,,,0.00,WUHU21023XXSP,2013-02-14 08:33:00,
2013-02-14 02:39:00,33.6,28.9,29.64,SE,135,0.0,0.0,83,0.00,,,0.00,WUHU21023XXSP,2013-02-14 08:39:00,
2013-02-14 02:46:00,33.8,29.1,29.64,SE,135,0.0,0.0,83,0.00,,,0.00,WUHU21023XXSP,2013-02-14 08:46:00,
2013-02-14 02:52:00,33.8,29.4,29.64,SE,135,0.0,0.0,84,0.00,,,0.00,WUHU21023XXSP,2013-02-14 08:52:00,
2013-02-14 02:59:00,33.8,29.4,29.63,SE,135,0.0,0.0,84,0.00,,,0.00,WUHU21023XXSP,2013-02-14 08:59:00,
2013-02-14 03:05:00,34.0,29.6,29.62,SE,135,0.0,0.0,84,0.00,,,0.00,WUHU21023XXSP,2013-02-14 09:05:00,
2013-02-14 03:12:00,34.0,29.6,29.62,SE,135,0.0,0.0,84,0.00,,,0.00,WUHU21023XXSP,2013-02-14 09:12:00,
2013-02-14 03:18:00,34.0,29.6,29.62,SE,135,0.0,0.0,84,0.00,,,0.00,WUHU21023XXSP,2013-02-14 09:18:00,
2013-02-14 03:24:00,34.0,29.6,29.61,ESE,112,2.0,2.0,84,0.00,,,0.00,WUHU21023XXSP,2013-02-14 09:24:00,
2013-02-14 03:31:00,34.0,29.6,29.61,SE,135,0.0,5.0,84,0.00,,,0.00,WUHU21023XXSP,2013-02-14 09:31:00,
2013-02-14 03:37:00,34.0,29.6,29.61,SE,135,0.0,5.0,84,0.00,,,0.00,WUHU21023XXSP,2013-02-14 09:37:00,
2013-02-14 03:44:00,34.0,29.6,29.61,SSE,157,0.0,0.0,84,0.00,,,0.00,WUHU21023XXSP,2013-02-14 09:44:00,
2013-02-14 03:50:00,33.8,29.4,29.61,SE,135,0.0,0.0,84,0.00,,,0.00,WUHU21023XXSP,2013-02-14 09:50:00,
2013-02-14 03:57:00,33.6,29.2,29.61,SSW,202,0.0,0.0,84,0.00,,,0.00,WUHU21023XXSP,2013-02-14 09:57:00,
2013-02-14 04:03:00,33.6,29.2,29.60,SSE,157,0.0,0.0,84,0.00,,,0.00,WUHU21023XXSP,2013-02-14 10:03:00,
2013-02-14 04:09:00,34.0,29.6,29.60,South,180,0.0,0.0,84,0.00,,,0.00,WUHU21023XXSP,2013-02-14 10:09:00,
2013-02-14 04:16:00,34.2,29.7,29.60,SSE,157,0.0,0.0,84,0.00,,,0.00,WUHU21023XXSP,2013-02-14 10:16:00,
2013-02-14 04:22:00,34.3,29.9,29.60,South,180,0.0,3.0,84,0.00,,,0.00,WUHU21023XXSP,2013-02-14 10:22:00,
2013-02-14 04:29:00,34.3,29.9,29.60,South,180,0.0,3.0,84,0.00,,,0.00,WUHU21023XXSP,2013-02-14 10:29:00,
2013-02-14 04:35:00,34.3,29.9,29.60,SSE,157,0.0,0.0,84,0.00,,,0.00,WUHU21023XXSP,2013-02-14 10:35:00,
2013-02-14 04:42:00,34.3,29.6,29.60,South,180,0.0,4.0,83,0.00,,,0.00,WUHU21023XXSP,2013-02-14 10:42:00,
2013-02-14 04:48:00,34.3,29.6,29.60,SE,135,0.0,2.0,83,0.00,,,0.00,WUHU21023XXSP,2013-02-14 10:48:00,
2013-02-14 04:54:00,34.3,29.6,29.59,SW,225,0.0,0.0,83,0.00,,,0.00,WUHU21023XXSP,2013-02-14 10:54:00,
2013-02-14 05:01:00,34.3,29.6,29.59,SE,135,0.0,7.0,83,0.00,,,0.00,WUHU21023XXSP,2013-02-14 11:01:00,
2013-02-14 05:07:00,34.3,29.6,29.59,SSW,202,0.0,7.0,83,0.00,,,0.00,WUHU21023XXSP,2013-02-14 11:07:00,
2013-02-14 05:14:00,34.7,30.0,29.59,SSW,202,0.0,0.0,83,0.00,,,0.00,WUHU21023XXSP,2013-02-14 11:14:00,
2013-02-14 05:20:00,34.9,29.9,29.59,SSW,202,5.0,5.0,82,0.00,,,0.00,WUHU21023XXSP,2013-02-14 11:20:00,
2013-02-14 05:26:00,35.2,30.2,29.59,SW,225,7.0,7.0,82,0.00,,,0.00,WUHU21023XXSP,2013-02-14 11:26:00,
2013-02-14 05:33:00,35.4,30.1,29.59,SSW,202,0.0,8.0,81,0.00,,,0.00,WUHU21023XXSP,2013-02-14 11:33:00,
2013-02-14 05:39:00,35.4,30.1,29.59,SW,225,0.0,8.0,81,0.00,,,0.00,WUHU21023XXSP,2013-02-14 11:39:00,
2013-02-14 05:46:00,35.4,29.8,29.59,SSW,202,4.0,8.0,80,0.00,,,0.00,WUHU21023XXSP,2013-02-14 11:46:00,
2013-02-14 05:52:00,35.2,29.7,29.59,SSW,202,6.0,8.0,80,0.00,,,0.00,WUHU21023XXSP,2013-02-14 11:52:00,
2013-02-14 05:59:00,35.2,29.7,29.59,South,180,0.0,6.0,80,0.00,,,0.00,WUHU21023XXSP,2013-02-14 11:59:00,
2013-02-14 06:05:00,35.2,29.7,29.59,SSW,202,5.0,9.0,80,0.00,,,0.00,WUHU21023XXSP,2013-02-14 12:05:00,
2013-02-14 06:11:00,35.2,29.7,29.59,SSW,202,0.0,10.0,80,0.00,,,0.00,WUHU21023XXSP,2013-02-14 12:11:00,
2013-02-14 06:18:00,35.2,29.7,29.59,SW,225,0.0,0.0,80,0.00,,,0.00,WUHU21023XXSP,2013-02-14 12:18:00,
2013-02-14 06:24:00,35.2,29.7,29.59,South,180,0.0,7.0,80,0.00,,,0.00,WUHU21023XXSP,2013-02-14 12:24:00,
2013-02-14 06:31:00,35.2,29.7,29.59,SW,225,3.0,7.0,80,0.00,,,0.00,WUHU21023XXSP,2013-02-14 12:31:00,
2013-02-14 06:37:00,34.9,29.3,29.59,SSW,202,6.0,7.0,80,0.00,,,0.00,WUHU21023XXSP,2013-02-14 12:37:00,
2013-02-14 06:44:00,34.7,29.1,29.59,SW,225,8.0,8.0,80,0.00,,,0.00,WUHU21023XXSP,2013-02-14 12:44:00,
2013-02-14 06:50:00,34.7,29.1,29.59,SSW,202,0.0,9.0,80,0.00,,,0.00,WUHU21023XXSP,2013-02-14 12:50:00,
2013-02-14 06:56:00,34.5,28.9,29.60,SSW,202,5.0,9.0,80,0.00,,,0.00,WUHU21023XXSP,2013-02-14 12:56:00,
2013-02-14 07:03:00,34.5,29.2,29.60,SSE,157,3.0,7.0,81,0.00,,,0.00,WUHU21023XXSP,2013-02-14 13:03:00,
2013-02-14 07:09:00,34.5,29.2,29.60,SSW,202,0.0,9.0,81,0.00,,,0.00,WUHU21023XXSP,2013-02-14 13:09:00,
2013-02-14 07:16:00,34.3,29.0,29.60,SW,225,8.0,8.0,81,0.00,,,0.00,WUHU21023XXSP,2013-02-14 13:16:00,
2013-02-14 07:22:00,34.3,29.0,29.60,SW,225,0.0,8.0,81,0.00,,,0.00,WUHU21023XXSP,2013-02-14 13:22:00,
2013-02-14 07:29:00,34.3,29.0,29.60,SW,225,0.0,8.0,81,0.00,,,0.00,WUHU21023XXSP,2013-02-14 13:29:00,
2013-02-14 07:35:00,34.5,29.2,29.61,SW,225,0.0,7.0,81,0.00,,,0.00,WUHU21023XXSP,2013-02-14 13:35:00,
2013-02-14 07:41:00,34.7,29.4,29.61,SSW,202,0.0,4.0,81,0.00,,,0.00,WUHU21023XXSP,2013-02-14 13:41:00,
2013-02-14 07:48:00,34.7,29.4,29.61,South,180,3.0,11.0,81,0.00,,,0.00,WUHU21023XXSP,2013-02-14 13:48:00,
2013-02-14 07:54:00,34.9,29.6,29.61,WSW,247,5.0,11.0,81,0.00,,,0.00,WUHU21023XXSP,2013-02-14 13:54:00,
2013-02-14 08:01:00,34.9,29.6,29.61,SW,225,0.0,10.0,81,0.00,,,0.00,WUHU21023XXSP,2013-02-14 14:01:00,
2013-02-14 08:07:00,35.2,29.9,29.61,SSW,202,0.0,10.0,81,0.00,,,0.00,WUHU21023XXSP,2013-02-14 14:07:00,
2013-02-14 08:13:00,35.4,30.1,29.61,WSW,247,4.0,6.0,81,0.00,,,0.00,WUHU21023XXSP,2013-02-14 14:13:00,
2013-02-14 08:20:00,35.4,30.1,29.61,SSW,202,6.0,7.0,81,0.00,,,0.00,WUHU21023XXSP,2013-02-14 14:20:00,
2013-02-14 08:26:00,35.4,30.1,29.61,WSW,247,7.0,7.0,81,0.00,,,0.00,WUHU21023XXSP,2013-02-14 14:26:00,
2013-02-14 08:33:00,35.4,30.1,29.61,SSW,202,0.0,7.0,81,0.00,,,0.00,WUHU21023XXSP,2013-02-14 14:33:00,
2013-02-14 08:39:00,35.4,30.1,29.61,WSW,247,0.0,7.0,81,0.00,,,0.00,WUHU21023XXSP,2013-02-14 14:39:00,
2013-02-14 08:46:00,35.4,30.4,29.61,SSW,202,5.0,5.0,82,0.00,,,0.00,WUHU21023XXSP,2013-02-14 14:46:00,
2013-02-14 08:52:00,35.4,30.4,29.62,SW,225,4.0,5.0,82,0.00,,,0.00,WUHU21023XXSP,2013-02-14 14:52:00,
2013-02-14 08:58:00,35.4,30.4,29.62,SSW,202,0.0,9.0,82,0.00,,,0.00,WUHU21023XXSP,2013-02-14 14:58:00,
2013-02-14 09:05:00,35.4,30.4,29.62,SW,225,5.0,9.0,82,0.00,,,0.00,WUHU21023XXSP,2013-02-14 15:05:00,
2013-02-14 09:11:00,35.4,30.4,29.62,West,270,0.0,7.0,82,0.00,,,0.00,WUHU21023XXSP,2013-02-14 15:11:00,
2013-02-14 09:18:00,35.4,30.7,29.62,WSW,247,0.0,5.0,83,0.00,,,0.00,WUHU21023XXSP,2013-02-14 15:18:00,
2013-02-14 09:24:00,35.2,30.5,29.62,SW,225,11.0,11.0,83,0.00,,,0.00,WUHU21023XXSP,2013-02-14 15:24:00,
2013-02-14 09:31:00,35.2,30.5,29.62,West,270,0.0,11.0,83,0.00,,,0.00,WUHU21023XXSP,2013-02-14 15:31:00,
2013-02-14 09:37:00,35.2,30.5,29.62,SSW,202,0.0,3.0,83,0.00,,,0.00,WUHU21023XXSP,2013-02-14 15:37:00,
2013-02-14 09:43:00,35.2,30.5,29.63,SSW,202,5.0,5.0,83,0.00,,,0.00,WUHU21023XXSP,2013-02-14 15:43:00,
2013-02-14 09:50:00,35.4,30.7,29.63,WSW,247,5.0,5.0,83,0.00,,,0.00,WUHU21023XXSP,2013-02-14 15:50:00,
2013-02-14 09:56:00,35.4,30.7,29.63,West,270,0.0,8.0,83,0.00,,,0.00,WUHU21023XXSP,2013-02-14 15:56:00,
2013-02-14 10:03:00,35.4,30.7,29.63,SSW,202,0.0,8.0,83,0.00,,,0.00,WUHU21023XXSP,2013-02-14 16:03:00,
2013-02-14 10:09:00,35.4,30.7,29.63,West,270,0.0,2.0,83,0.00,,,0.00,WUHU21023XXSP,2013-02-14 16:09:00,
2013-02-14 10:16:00,35.8,31.1,29.64,SW,225,7.0,7.0,83,0.00,,,0.00,WUHU21023XXSP,2013-02-14 16:16:00,
2013-02-14 10:22:00,35.8,31.1,29.64,WSW,247,5.0,7.0,83,0.00,,,0.00,WUHU21023XXSP,2013-02-14 16:22:00,
2013-02-14 10:28:00,36.0,31.2,29.64,WSW,247,0.0,5.0,83,0.00,,,0.00,WUHU21023XXSP,2013-02-14 16:28:00,
2013-02-14 10:35:00,36.0,31.2,29.64,West,270,3.0,7.0,83,0.00,,,0.00,WUHU21023XXSP,2013-02-14 16:35:00,
2013-02-14 10:41:00,36.0,31.2,29.65,West,270,0.0,9.0,83,0.00,,,0.00,WUHU21023XXSP,2013-02-14 16:41:00,
2013-02-14 10:48:00,36.0,31.2,29.65,WNW,292,7.0,9.0,83,0.00,,,0.00,WUHU21023XXSP,2013-02-14 16:48:00,
2013-02-14 10:54:00,36.0,31.2,29.65,SSW,202,0.0,7.0,83,0.00,,,0.00,WUHU21023XXSP,2013-02-14 16:54:00,
2013-02-14 11:01:00,36.1,31.4,29.65,WNW,292,4.0,7.0,83,0.00,,,0.00,WUHU21023XXSP,2013-02-14 17:01:00,
2013-02-14 11:07:00,36.3,31.6,29.66,West,270,0.0,7.0,83,0.00,,,0.00,WUHU21023XXSP,2013-02-14 17:07:00,
2013-02-14 11:13:00,36.3,31.3,29.66,West,270,3.0,3.0,82,0.00,,,0.00,WUHU21023XXSP,2013-02-14 17:13:00,
2013-02-14 11:20:00,36.1,31.1,29.66,West,270,0.0,5.0,82,0.00,,,0.00,WUHU21023XXSP,2013-02-14 17:20:00,
2013-02-14 11:26:00,36.1,31.1,29.67,West,270,5.0,6.0,82,0.00,,,0.00,WUHU21023XXSP,2013-02-14 17:26:00,
2013-02-14 11:33:00,36.1,31.1,29.67,WNW,292,9.0,9.0,82,0.00,,,0.00,WUHU21023XXSP,2013-02-14 17:33:00,
2013-02-14 11:39:00,36.1,31.1,29.68,WNW,292,5.0,9.0,82,0.00,,,0.00,WUHU21023XXSP,2013-02-14 17:39:00,
2013-02-14 11:45:00,36.0,31.0,29.68,NW,315,7.0,12.0,82,0.00,,,0.00,WUHU21023XXSP,2013-02-14 17:45:00,
2013-02-14 11:52:00,35.8,30.8,29.68,NW,315,8.0,8.0,82,0.00,,,0.00,WUHU21023XXSP,2013-02-14 17:52:00,
2013-02-14 11:58:00,35.8,30.5,29.69,WNW,292,9.0,9.0,81,0.00,,,0.00,WUHU21023XXSP,2013-02-14 17:58:00,
2013-02-14 12:05:00,35.4,29.8,29.69,West,270,14.0,14.0,80,0.00,,,0.00,WUHU21023XXSP,2013-02-14 18:05:00,
2013-02-14 12:11:00,35.4,29.8,29.69,NW,315,7.0,14.0,80,0.00,,,0.00,WUHU21023XXSP,2013-02-14 18:11:00,
2013-02-14 12:18:00,35.2,29.7,29.69,WNW,292,14.0,14.0,80,0.00,,,0.00,WUHU21023XXSP,2013-02-14 18:18:00,
2013-02-14 12:24:00,34.9,29.3,29.70,NW,315,7.0,14.0,80,0.00,,,0.00,WUHU21023XXSP,2013-02-14 18:24:00,
2013-02-14 12:30:00,34.9,29.3,29.70,WNW,292,11.0,11.0,80,0.00,,,0.00,WUHU21023XXSP,2013-02-14 18:30:00,
2013-02-14 12:37:00,34.5,28.9,29.70,WNW,292,9.0,11.0,80,0.00,,,0.00,WUHU21023XXSP,2013-02-14 18:37:00,
2013-02-14 12:43:00,34.5,28.6,29.71,WNW,292,7.0,11.0,79,0.00,,,0.00,WUHU21023XXSP,2013-02-14 18:43:00,
2013-02-14 12:50:00,34.5,28.6,29.71,NW,315,4.0,9.0,79,0.00,,,0.00,WUHU21023XXSP,2013-02-14 18:50:00,
2013-02-14 12:56:00,34.7,28.8,29.71,NW,315,4.0,7.0,79,0.00,,,0.00,WUHU21023XXSP,2013-02-14 18:56:00,
2013-02-14 13:03:00,34.7,28.8,29.72,West,270,11.0,11.0,79,0.00,,,0.00,WUHU21023XXSP,2013-02-14 19:03:00,
2013-02-14 13:09:00,34.7,28.8,29.72,West,270,5.0,12.0,79,0.00,,,0.00,WUHU21023XXSP,2013-02-14 19:09:00,
2013-02-14 13:15:00,34.7,28.8,29.72,WNW,292,6.0,12.0,79,0.00,,,0.00,WUHU21023XXSP,2013-02-14 19:15:00,
2013-02-14 13:22:00,34.9,28.7,29.72,WNW,292,7.0,8.0,78,0.00,,,0.00,WUHU21023XXSP,2013-02-14 19:22:00,
2013-02-14 13:28:00,34.9,28.3,29.73,West,270,12.0,12.0,77,0.00,,,0.00,WUHU21023XXSP,2013-02-14 19:28:00,
2013-02-14 13:35:00,34.7,28.1,29.74,NW,315,7.0,12.0,77,0.00,,,0.00,WUHU21023XXSP,2013-02-14 19:35:00,
2013-02-14 13:41:00,34.5,28.0,29.74,NW,315,10.0,10.0,77,0.00,,,0.00,WUHU21023XXSP,2013-02-14 19:41:00,
2013-02-14 13:48:00,34.3,27.8,29.74,NW,315,7.0,10.0,77,0.00,,,0.00,WUHU21023XXSP,2013-02-14 19:48:00,
2013-02-14 13:54:00,34.3,27.8,29.75,NW,315,15.0,15.0,77,0.00,,,0.00,WUHU21023XXSP,2013-02-14 19:54:00,
2013-02-14 14:00:00,34.3,27.8,29.75,WNW,292,9.0,15.0,77,0.00,,,0.00,WUHU21023XXSP,2013-02-14 20:00:00,
2013-02-14 14:07:00,34.3,27.8,29.75,WNW,292,7.0,13.0,77,0.00,,,0.00,WUHU21023XXSP,2013-02-14 20:07:00,
2013-02-14 14:13:00,34.2,27.6,29.75,NW,315,5.0,13.0,77,0.00,,,0.00,WUHU21023XXSP,2013-02-14 20:13:00,
2013-02-14 14:20:00,34.2,27.6,29.75,West,270,8.0,8.0,77,0.00,,,0.00,WUHU21023XXSP,2013-02-14 20:20:00,
2013-02-14 14:26:00,34.2,27.6,29.76,NW,315,10.0,10.0,77,0.00,,,0.00,WUHU21023XXSP,2013-02-14 20:26:00,
2013-02-14 14:33:00,34.2,27.3,29.77,WNW,292,6.0,10.0,76,0.00,,,0.00,WUHU21023XXSP,2013-02-14 20:33:00,
2013-02-14 14:39:00,34.2,27.0,29.77,WNW,292,9.0,9.0,75,0.00,,,0.00,WUHU21023XXSP,2013-02-14 20:39:00,
2013-02-14 14:45:00,34.2,26.6,29.77,NW,315,5.0,9.0,74,0.00,,,0.00,WUHU21023XXSP,2013-02-14 20:45:00,
2013-02-14 14:52:00,34.2,26.6,29.78,WNW,292,5.0,8.0,74,0.00,,,0.00,WUHU21023XXSP,2013-02-14 20:52:00,
2013-02-14 14:58:00,34.0,26.5,29.78,NW,315,4.0,9.0,74,0.00,,,0.00,WUHU21023XXSP,2013-02-14 20:58:00,
2013-02-14 15:05:00,34.2,26.6,29.79,NW,315,3.0,8.0,74,0.00,,,0.00,WUHU21023XXSP,2013-02-14 21:05:00,
2013-02-14 15:11:00,34.2,26.3,29.79,NW,315,6.0,12.0,73,0.00,,,0.00,WUHU21023XXSP,2013-02-14 21:11:00,
2013-02-14 15:18:00,34.2,26.3,29.80,NW,315,3.0,15.0,73,0.00,,,0.00,WUHU21023XXSP,2013-02-14 21:18:00,
2013-02-14 15:24:00,34.2,26.0,29.80,NW,315,9.0,9.0,72,0.00,,,0.00,WUHU21023XXSP,2013-02-14 21:24:00,
2013-02-14 15:30:00,34.2,26.0,29.81,NW,315,10.0,10.0,72,0.00,,,0.00,WUHU21023XXSP,2013-02-14 21:30:00,
2013-02-14 15:37:00,34.0,25.5,29.82,NW,315,9.0,10.0,71,0.00,,,0.00,WUHU21023XXSP,2013-02-14 21:37:00,
2013-02-14 15:43:00,33.8,25.6,29.82,WNW,292,4.0,9.0,72,0.00,,,0.00,WUHU21023XXSP,2013-02-14 21:43:00,
2013-02-14 15:50:00,33.6,25.5,29.82,NW,315,0.0,4.0,72,0.00,,,0.00,WUHU21023XXSP,2013-02-14 21:50:00,
2013-02-14 15:56:00,33.6,25.5,29.83,West,270,12.0,12.0,72,0.00,,,0.00,WUHU21023XXSP,2013-02-14 21:56:00,
2013-02-14 16:03:00,33.4,25.3,29.83,NW,315,6.0,12.0,72,0.00,,,0.00,WUHU21023XXSP,2013-02-14 22:03:00,
2013-02-14 16:09:00,33.4,25.3,29.84,NW,315,0.0,6.0,72,0.00,,,0.00,WUHU21023XXSP,2013-02-14 22:09:00,
2013-02-14 16:15:00,33.3,25.1,29.84,NW,315,0.0,10.0,72,0.00,,,0.00,WUHU21023XXSP,2013-02-14 22:15:00,
2013-02-14 16:22:00,33.1,25.3,29.85,NW,315,0.0,10.0,73,0.00,,,0.00,WUHU21023XXSP,2013-02-14 22:22:00,
2013-02-14 16:28:00,32.9,25.1,29.85,WNW,292,0.0,0.0,73,0.00,,,0.00,WUHU21023XXSP,2013-02-14 22:28:00,
2013-02-14 16:35:00,32.7,25.1,29.85,NW,315,0.0,0.0,73,0.00,,,0.00,WUHU21023XXSP,2013-02-14 22:35:00,
2013-02-14 16:41:00,32.7,25.0,29.86,WNW,292,0.0,2.0,73,0.00,,,0.00,WUHU21023XXSP,2013-02-14 22:41:00,
2013-02-14 16:48:00,32.7,25.0,29.86,NW,315,0.0,5.0,73,0.00,,,0.00,WUHU21023XXSP,2013-02-14 22:48:00,
2013-02-14 16:54:00,32.7,25.0,29.86,WNW,292,0.0,5.0,73,0.00,,,0.00,WUHU21023XXSP,2013-02-14 22:54:00,
2013-02-14 17:00:00,32.7,25.3,29.87,WNW,292,0.0,0.0,74,0.00,,,0.00,WUHU21023XXSP,2013-02-14 23:00:00,
2013-02-14 17:07:00,32.5,24.8,29.87,WNW,292,0.0,0.0,73,0.00,,,0.00,WUHU21023XXSP,2013-02-14 23:07:00,
2013-02-14 17:13:00,32.5,25.1,29.87,WNW,292,0.0,0.0,74,0.00,,,0.00,WUHU21023XXSP,2013-02-14 23:13:00,
2013-02-14 17:20:00,32.5,24.8,29.87,WNW,292,0.0,1.0,73,0.00,,,0.00,WUHU21023XXSP,2013-02-14 23:20:00,
2013-02-14 17:26:00,32.4,24.7,29.88,WNW,292,0.0,6.0,73,0.00,,,0.00,WUHU21023XXSP,2013-02-14 23:26:00,
2013-02-14 17:33:00,32.4,24.3,29.88,WNW,292,0.0,6.0,72,0.00,,,0.00,WUHU21023XXSP,2013-02-14 23:33:00,
2013-02-14 17:39:00,32.4,24.3,29.89,NW,315,0.0,5.0,72,0.00,,,0.00,WUHU21023XXSP,2013-02-14 23:39:00,
2013-02-14 17:45:00,32.4,24.0,29.89,WNW,292,0.0,5.0,71,0.00,,,0.00,WUHU21023XXSP,2013-02-14 23:45:00,
2013-02-14 17:52:00,32.4,24.0,29.90,WNW,292,0.0,2.0,71,0.00,,,0.00,WUHU21023XXSP,2013-02-14 23:52:00,
2013-02-14 17:58:00,32.4,23.7,29.90,WNW,292,0.0,0.0,70,0.00,,,0.00,WUHU21023XXSP,2013-02-14 23:58:00,
2013-02-14 18:05:00,32.4,23.7,29.90,WNW,292,0.0,0.0,70,0.00,,,0.00,WUHU21023XXSP,2013-02-15 00:05:00,
2013-02-14 18:11:00,32.4,23.7,29.91,West,270,0.0,0.0,70,0.00,,,0.00,WUHU21023XXSP,2013-02-15 00:11:00,
2013-02-14 18:18:00,32.4,23.7,29.91,WNW,292,0.0,3.0,70,0.00,,,0.00,WUHU21023XXSP,2013-02-15 00:18:00,
2013-02-14 18:24:00,32.4,23.7,29.91,WNW,292,0.0,3.0,70,0.00,,,0.00,WUHU21023XXSP,2013-02-15 00:24:00,
2013-02-14 18:30:00,32.4,23.7,29.91,WNW,292,0.0,0.0,70,0.00,,,0.00,WUHU21023XXSP,2013-02-15 00:30:00,
2013-02-14 18:37:00,32.4,23.7,29.92,WNW,292,0.0,0.0,70,0.00,,,0.00,WUHU21023XXSP,2013-02-15 00:37:00,
2013-02-14 18:43:00,32.4,23.7,29.92,West,270,0.0,0.0,70,0.00,,,0.00,WUHU21023XXSP,2013-02-15 00:43:00,
2013-02-14 18:50:00,32.2,23.2,29.92,WNW,292,0.0,3.0,69,0.00,,,0.00,WUHU21023XXSP,2013-02-15 00:50:00,
2013-02-14 18:56:00,32.2,23.5,29.93,WNW,292,0.0,3.0,70,0.00,,,0.00,WUHU21023XXSP,2013-02-15 00:56:00,
2013-02-14 19:02:00,32.2,23.5,29.93,WNW,292,0.0,0.0,70,0.00,,,0.00,WUHU21023XXSP,2013-02-15 01:02:00,
2013-02-14 19:09:00,32.0,23.0,29.93,West,270,0.0,0.0,69,0.00,,,0.00,WUHU21023XXSP,2013-02-15 01:09:00,
2013-02-14 19:15:00,31.8,22.8,29.93,WNW,292,0.0,0.0,69,0.00,,,0.00,WUHU21023XXSP,2013-02-15 01:15:00,
2013-02-14 19:22:00,31.8,22.8,29.93,WNW,292,0.0,0.0,69,0.00,,,0.00,WUHU21023XXSP,2013-02-15 01:22:00,
2013-02-14 19:28:00,31.6,22.6,29.93,WNW,292,0.0,0.0,69,0.00,,,0.00,WUHU21023XXSP,2013-02-15 01:28:00,
2013-02-14 19:35:00,31.6,22.6,29.93,West,270,0.0,0.0,69,0.00,,,0.00,WUHU21023XXSP,2013-02-15 01:35:00,
2013-02-14 19:41:00,31.6,22.6,29.93,WNW,292,0.0,0.0,69,0.00,,,0.00,WUHU21023XXSP,2013-02-15 01:41:00,
2013-02-14 19:47:00,31.6,23.0,29.93,WNW,292,0.0,0.0,70,0.00,,,0.00,WUHU21023XXSP,2013-02-15 01:47:00,
2013-02-14 19:54:00,31.6,23.0,29.93,WNW,292,0.0,0.0,70,0.00,,,0.00,WUHU21023XXSP,2013-02-15 01:54:00,
2013-02-14 20:00:00,31.6,23.0,29.93,WNW,292,0.0,0.0,70,0.00,,,0.00,WUHU21023XXSP,2013-02-15 02:00:00,
2013-02-14 20:07:00,31.5,22.8,29.93,WNW,292,0.0,0.0,70,0.00,,,0.00,WUHU21023XXSP,2013-02-15 02:07:00,
2013-02-14 20:13:00,31.3,22.6,29.93,WNW,292,0.0,0.0,70,0.00,,,0.00,WUHU21023XXSP,2013-02-15 02:13:00,
2013-02-14 20:20:00,31.3,22.6,29.93,WNW,292,0.0,0.0,70,0.00,,,0.00,WUHU21023XXSP,2013-02-15 02:20:00,
2013-02-14 20:26:00,31.1,22.5,29.93,WNW,292,0.0,0.0,70,0.00,,,0.00,WUHU21023XXSP,2013-02-15 02:26:00,
2013-02-14 20:32:00,30.9,22.3,29.94,WNW,292,0.0,0.0,70,0.00,,,0.00,WUHU21023XXSP,2013-02-15 02:32:00,
2013-02-14 20:39:00,30.9,22.3,29.94,WNW,292,0.0,0.0,70,0.00,,,0.00,WUHU21023XXSP,2013-02-15 02:39:00,
2013-02-14 20:45:00,30.7,22.1,29.95,WNW,292,0.0,0.0,70,0.00,,,0.00,WUHU21023XXSP,2013-02-15 02:45:00,
2013-02-14 20:52:00,30.6,22.2,29.94,WNW,292,0.0,0.0,71,0.00,,,0.00,WUHU21023XXSP,2013-02-15 02:52:00,
2013-02-14 20:58:00,30.4,22.1,29.94,WNW,292,0.0,0.0,71,0.00,,,0.00,WUHU21023XXSP,2013-02-15 02:58:00,
2013-02-14 21:05:00,30.2,21.9,29.95,WNW,292,0.0,0.0,71,0.00,,,0.00,WUHU21023XXSP,2013-02-15 03:05:00,
2013-02-14 21:11:00,30.0,21.7,29.95,WNW,292,0.0,0.0,71,0.00,,,0.00,WUHU21023XXSP,2013-02-15 03:11:00,
2013-02-14 21:18:00,30.0,21.7,29.94,WNW,292,0.0,0.0,71,0.00,,,0.00,WUHU21023XXSP,2013-02-15 03:18:00,
2013-02-14 21:24:00,29.8,21.5,29.95,West,270,0.0,0.0,71,0.00,,,0.00,WUHU21023XXSP,2013-02-15 03:24:00,
2013-02-14 21:30:00,29.8,21.5,29.95,West,270,0.0,0.0,71,0.00,,,0.00,WUHU21023XXSP,2013-02-15 03:30:00,
2013-02-14 21:37:00,29.7,21.4,29.95,West,270,0.0,0.0,71,0.00,,,0.00,WUHU21023XXSP,2013-02-15 03:37:00,
2013-02-14 21:43:00,29.5,21.2,29.95,West,270,0.0,0.0,71,0.00,,,0.00,WUHU21023XXSP,2013-02-15 03:43:00,
2013-02-14 21:50:00,29.5,21.2,29.95,West,270,0.0,0.0,71,0.00,,,0.00,WUHU21023XXSP,2013-02-15 03:50:00,
2013-02-14 21:56:00,29.3,21.1,29.95,West,270,0.0,0.0,71,0.00,,,0.00,WUHU21023XXSP,2013-02-15 03:56:00,
2013-02-14 22:02:00,29.1,20.9,29.95,West,270,0.0,0.0,71,0.00,,,0.00,WUHU21023XXSP,2013-02-15 04:02:00,
2013-02-14 22:09:00,28.9,21.0,29.95,West,270,0.0,0.0,72,0.00,,,0.00,WUHU21023XXSP,2013-02-15 04:09:00,
2013-02-14 22:15:00,28.6,20.7,29.96,West,270,0.0,0.0,72,0.00,,,0.00,WUHU21023XXSP,2013-02-15 04:15:00,
2013-02-14 22:22:00,28.2,20.4,29.95,West,270,0.0,0.0,72,0.00,,,0.00,WUHU21023XXSP,2013-02-15 04:22:00,
2013-02-14 22:28:00,28.0,20.2,29.95,West,270,0.0,0.0,72,0.00,,,0.00,WUHU21023XXSP,2013-02-15 04:28:00,
2013-02-14 22:35:00,27.7,19.8,29.95,West,270,0.0,0.0,72,0.00,,,0.00,WUHU21023XXSP,2013-02-15 04:35:00,
2013-02-14 22:41:00,27.3,19.8,29.96,West,270,0.0,0.0,73,0.00,,,0.00,WUHU21023XXSP,2013-02-15 04:41:00,
2013-02-14 22:47:00,27.1,19.6,29.96,West,270,0.0,0.0,73,0.00,,,0.00,WUHU21023XXSP,2013-02-15 04:47:00,
2013-02-14 22:54:00,27.0,19.4,29.96,West,270,0.0,0.0,73,0.00,,,0.00,WUHU21023XXSP,2013-02-15 04:54:00,
2013-02-14 23:00:00,27.0,19.4,29.96,WNW,292,0.0,0.0,73,0.00,,,0.00,WUHU21023XXSP,2013-02-15 05:00:00,
2013-02-14 23:02:00,27.0,19.4,29.96,WNW,292,0.0,0.0,73,0.00,,,0.00,WUHU21023XXSP,2013-02-15 05:02:00,
2013-02-14 23:05:00,27.0,19.4,29.96,WNW,292,0.0,0.0,73,0.00,,,0.00,WUHU21023XXSP,2013-02-15 05:05:00,
2013-02-14 23:07:00,27.0,19.4,29.97,WNW,292,0.0,0.0,73,0.00,,,0.00,WUHU21023XXSP,2013-02-15 05:07:00,
2013-02-14 23:13:00,27.1,19.6,29.97,WNW,292,0.0,0.0,73,0.00,,,0.00,WUHU21023XXSP,2013-02-15 05:13:00,
2013-02-14 23:20:00,27.1,19.6,29.98,NW,315,0.0,0.0,73,0.00,,,0.00,WUHU21023XXSP,2013-02-15 05:20:00,
2013-02-14 23:26:00,27.1,19.6,29.97,NW,315,0.0,0.0,73,0.00,,,0.00,WUHU21023XXSP,2013-02-15 05:26:00,
2013-02-14 23:32:00,27.1,19.6,29.98,NW,315,0.0,0.0,73,0.00,,,0.00,WUHU21023XXSP,2013-02-15 05:32:00,
2013-02-14 23:39:00,27.1,19.6,29.98,WNW,292,0.0,0.0,73,0.00,,,0.00,WUHU21023XXSP,2013-02-15 05:39:00,
2013-02-14 23:45:00,27.1,19.9,29.97,WNW,292,0.0,0.0,74,0.00,,,0.00,WUHU21023XXSP,2013-02-15 05:45:00,
2013-02-14 23:52:00,27.1,19.9,29.98,WNW,292,0.0,0.0,74,0.00,,,0.00,WUHU21023XXSP,2013-02-15 05:52:00,
2013-02-14 23:58:00,27.1,19.9,29.98,WNW,292,0.0,0.0,74,0.00,,,0.00,WUHU21023XXSP,2013-02-15 05:58:00,